Time;durP1;ratioP1;P1;durP2;ratioP2;P2;SDS_P1;SDS_P2;PMS_P1;PMS_P2;Temp;Humidity;BMP_temperature;BMP_pressure;BME280_temperature;BME280_humidity;BME280_pressure;Samples;Min_cycle;Max_cycle;Signal;HPM_P1;HPM_P2
2021/03/30 00:00:28;;;;;;;51.03;31.63;;;;;;;10.79;66.50;100393.48;266346;1091;114832;-74
2021/03/30 00:05:49;;;;;;;55.83;33.33;;;;;;;10.76;66.36;100377.63;265978;1091;114917;-74
2021/03/30 00:10:52;;;;;;;51.75;34.93;;;;;;;10.78;66.68;100378.45;266314;1092;114770;-74
2021/03/30 00:15:55;;;;;;;53.53;33.85;;;;;;;10.78;67.16;100381.97;266338;1091;114935;-76
2021/03/30 00:20:58;;;;;;;54.15;34.58;;;;;;;10.82;66.71;100380.91;264948;1091;116337;-75
2021/03/30 00:26:01;;;;;;;51.75;36.15;;;;;;;10.80;66.55;100369.47;266453;1091;114777;-75
2021/03/30 00:31:04;;;;;;;50.17;31.43;;;;;;;10.78;66.34;100375.78;266291;1091;114930;-75
2021/03/30 00:36:06;;;;;;;46.70;30.18;;;;;;;10.73;67.04;100367.11;266259;1091;115138;-75
2021/03/30 00:41:09;;;;;;;42.75;27.90;;;;;;;10.68;66.86;100369.11;266298;1091;114961;-75
2021/03/30 00:46:14;;;;;;;43.88;27.13;;;;;;;10.74;67.06;100369.72;266375;1091;115212;-76
2021/03/30 00:51:18;;;;;;;37.37;26.13;;;;;;;10.82;67.67;100364.06;266348;1091;114966;-73
2021/03/30 00:56:44;;;;;;;42.25;27.63;;;;;;;10.93;67.71;100367.14;266264;1091;115151;-75
2021/03/30 01:01:46;;;;;;;40.13;26.28;;;;;;;10.93;67.03;100359.15;265978;1091;115187;-75
2021/03/30 01:06:49;;;;;;;33.33;23.07;;;;;;;10.91;67.32;100353.04;264879;1091;115560;-79
2021/03/30 01:12:10;;;;;;;34.25;22.28;;;;;;;10.91;67.27;100354.84;266180;1091;114981;-73
2021/03/30 01:17:24;;;;;;;36.40;23.80;;;;;;;10.93;67.51;100348.49;266387;1091;114984;-73
2021/03/30 01:22:45;;;;;;;33.13;22.90;;;;;;;10.86;67.33;100355.88;266306;1091;114925;-73
2021/03/30 01:28:02;;;;;;;38.93;24.73;;;;;;;10.81;67.72;100355.22;266263;1091;114509;-72
2021/03/30 01:33:11;;;;;;;33.65;22.90;;;;;;;10.80;67.90;100352.60;265414;1091;114721;-71
2021/03/30 01:38:14;;;;;;;32.95;22.88;;;;;;;10.86;68.13;100355.02;266297;1091;114796;-72
2021/03/30 01:43:18;;;;;;;37.48;24.90;;;;;;;10.91;68.00;100350.38;266308;1091;114890;-74
2021/03/30 01:48:22;;;;;;;38.78;25.53;;;;;;;10.90;68.02;100345.95;266244;1091;115201;-75
2021/03/30 01:53:27;;;;;;;33.75;23.70;;;;;;;10.86;67.95;100344.36;265932;1091;115733;-74
2021/03/30 01:58:32;;;;;;;34.10;23.85;;;;;;;10.82;67.97;100340.10;266351;1091;114929;-76
2021/03/30 02:03:35;;;;;;;33.93;22.90;;;;;;;10.85;68.48;100343.50;266314;1091;114995;-75
2021/03/30 02:08:39;;;;;;;35.53;24.10;;;;;;;10.87;68.29;100338.13;266356;1091;114872;-76
2021/03/30 02:13:42;;;;;;;35.85;24.23;;;;;;;10.86;68.00;100339.03;265144;1092;114771;-74
2021/03/30 02:18:54;;;;;;;33.23;23.33;;;;;;;10.86;68.22;100342.56;266294;1091;115055;-74
2021/03/30 02:23:56;;;;;;;32.50;24.05;;;;;;;10.86;68.51;100331.91;265974;1091;114681;-74
2021/03/30 02:29:00;;;;;;;31.48;22.75;;;;;;;10.86;68.09;100331.05;266390;1091;114576;-74
2021/03/30 02:34:07;;;;;;;33.73;22.75;;;;;;;10.91;68.60;100330.88;266314;1091;114981;-72
2021/03/30 02:39:12;;;;;;;36.03;24.30;;;;;;;10.94;68.00;100339.59;266332;1091;114907;-72
2021/03/30 02:44:17;;;;;;;34.45;23.65;;;;;;;10.98;68.23;100335.00;266312;1091;114588;-72
2021/03/30 02:49:21;;;;;;;;;;;;;;;11.01;68.78;100335.73;265726;1091;115822;-72
2021/03/30 02:54:26;;;;;;;34.58;24.35;;;;;;;11.00;68.15;100327.80;266354;1091;100865;-73
2021/03/30 02:59:30;;;;;;;37.53;25.70;;;;;;;10.96;68.71;100324.39;266363;1091;115085;-72
2021/03/30 03:04:35;;;;;;;33.75;23.38;;;;;;;10.95;68.21;100319.15;266168;1091;114981;-73
2021/03/30 03:09:38;;;;;;;34.93;24.00;;;;;;;10.95;68.77;100313.82;266245;1091;114927;-73
2021/03/30 03:14:42;;;;;;;36.33;24.48;;;;;;;10.99;68.58;100316.27;266158;1091;115343;-73
2021/03/30 03:19:46;;;;;;;38.53;23.88;;;;;;;11.04;68.24;100316.06;266305;1091;115155;-73
2021/03/30 03:24:50;;;;;;;35.53;23.90;;;;;;;11.08;69.08;100310.56;266307;1092;114572;-70
2021/03/30 03:29:53;;;;;;;35.10;24.35;;;;;;;11.06;68.76;100306.22;265997;1091;114952;-72
2021/03/30 03:34:56;;;;;;;34.38;22.48;;;;;;;11.06;68.71;100304.42;266100;1091;114575;-72
2021/03/30 03:39:58;;;;;;;33.10;20.78;;;;;;;11.09;68.76;100309.61;266346;1091;115233;-73
2021/03/30 03:45:01;;;;;;;34.75;23.35;;;;;;;11.12;68.93;100313.95;266182;1091;115297;-73
2021/03/30 03:50:04;;;;;;;30.95;23.28;;;;;;;11.13;68.81;100319.20;266357;1091;114668;-72
2021/03/30 03:55:11;;;;;;;31.03;22.10;;;;;;;11.15;68.73;100318.29;266287;1091;114983;-72
2021/03/30 04:00:15;;;;;;;35.73;23.28;;;;;;;11.10;68.36;100319.33;266203;1091;115812;-72
2021/03/30 04:05:25;;;;;;;35.43;23.30;;;;;;;11.07;69.05;100308.84;266303;1091;114869;-74
2021/03/30 04:10:30;;;;;;;32.75;21.55;;;;;;;11.06;68.94;100304.42;266269;1091;114955;-74
2021/03/30 04:15:33;;;;;;;30.10;21.73;;;;;;;11.09;69.11;100308.75;266000;1092;114936;-75
2021/03/30 04:20:36;;;;;;;33.43;23.78;;;;;;;11.10;68.96;100299.81;266262;1091;114952;-72
2021/03/30 04:25:38;;;;;;;33.08;22.73;;;;;;;11.10;68.58;100303.34;266176;1091;115470;-72
2021/03/30 04:30:41;;;;;;;39.35;23.55;;;;;;;11.11;68.95;100305.09;266363;1092;115083;-71
2021/03/30 04:35:44;;;;;;;36.40;23.25;;;;;;;11.11;68.84;100305.09;266136;1091;115493;-72
2021/03/30 04:40:52;;;;;;;33.85;23.80;;;;;;;11.15;68.87;100312.96;266323;1091;114991;-70
2021/03/30 04:45:55;;;;;;;34.48;23.18;;;;;;;11.19;69.41;100318.08;266180;1091;114899;-74
2021/03/30 04:50:57;;;;;;;34.23;22.33;;;;;;;11.19;68.65;100314.55;265961;1091;114913;-73
2021/03/30 04:56:03;;;;;;;34.08;22.53;;;;;;;11.17;69.30;100314.59;266186;1091;114929;-73
2021/03/30 05:01:06;;;;;;;34.28;22.33;;;;;;;11.16;69.15;100315.54;264866;1091;114800;-72
2021/03/30 05:06:09;;;;;;;29.78;21.85;;;;;;;11.16;69.12;100318.20;266277;1091;114815;-72
2021/03/30 05:11:11;;;;;;;33.93;20.70;;;;;;;11.19;69.34;100323.41;266241;1091;115092;-73
2021/03/30 05:16:14;;;;;;;32.00;22.15;;;;;;;11.20;69.57;100326.93;266097;1091;115760;-71
2021/03/30 05:21:18;;;;;;;33.03;21.08;;;;;;;11.23;69.16;100327.66;266267;1091;115655;-72
2021/03/30 05:26:21;;;;;;;37.85;22.35;;;;;;;11.25;69.10;100332.94;266103;1091;114803;-72
2021/03/30 05:31:24;;;;;;;37.03;23.65;;;;;;;11.26;69.30;100330.19;266450;1091;114832;-73
2021/03/30 05:36:26;;;;;;;32.53;22.33;;;;;;;11.27;69.31;100336.38;266112;1092;114919;-73
2021/03/30 05:41:30;;;;;;;28.05;21.13;;;;;;;11.28;69.27;100339.00;265121;1091;114830;-74
2021/03/30 05:46:32;;;;;;;35.93;22.13;;;;;;;11.37;69.41;100343.03;266297;1091;114831;-75
2021/03/30 05:51:40;;;;;;;35.08;24.33;;;;;;;11.37;69.18;100346.56;266261;1091;115260;-74
2021/03/30 05:56:43;;;;;;;37.10;25.28;;;;;;;11.41;69.27;100355.29;266361;1091;114800;-72
2021/03/30 06:01:49;;;;;;;37.85;26.55;;;;;;;11.43;69.46;100353.44;265921;1091;114664;-74
2021/03/30 06:06:51;;;;;;;40.30;26.03;;;;;;;11.44;69.52;100352.48;266232;1091;114907;-72
2021/03/30 06:11:54;;;;;;;36.88;24.93;;;;;;;11.49;69.34;100361.16;266000;1091;114814;-73
2021/03/30 06:16:57;;;;;;;38.95;27.50;;;;;;;11.52;69.02;100362.84;266301;1091;115408;-74
2021/03/30 06:22:01;;;;;;;37.60;25.38;;;;;;;11.61;69.15;100373.92;265277;1091;114957;-72
2021/03/30 06:27:04;;;;;;;37.20;25.90;;;;;;;11.60;69.40;100360.67;265357;1091;114843;-73
2021/03/30 06:32:14;;;;;;;38.93;26.95;;;;;;;11.54;69.49;100367.14;266307;1091;115128;-74
2021/03/30 06:37:26;;;;;;;36.13;23.93;;;;;;;11.60;69.42;100374.88;266316;1091;114491;-73
2021/03/30 06:42:40;;;;;;;30.88;21.73;;;;;;;11.60;69.29;100382.88;266379;1091;115289;-74
2021/03/30 06:47:46;;;;;;;34.83;22.33;;;;;;;11.68;69.60;100389.66;266352;1091;114755;-75
2021/03/30 06:52:50;;;;;;;36.93;24.40;;;;;;;11.72;69.51;100389.47;266347;1091;114885;-72
2021/03/30 06:58:02;;;;;;;33.53;23.25;;;;;;;11.77;69.80;100387.45;264982;1091;114667;-78
2021/03/30 07:03:09;;;;;;;38.13;24.45;;;;;;;11.78;68.96;100394.50;262629;1091;114974;-76
2021/03/30 07:08:19;;;;;;;36.15;23.60;;;;;;;11.76;69.43;100387.53;265981;1091;115267;-72
2021/03/30 07:13:24;;;;;;;39.03;24.25;;;;;;;11.78;69.21;100394.50;266034;1092;115312;-72
2021/03/30 07:18:31;;;;;;;;;;;;;;;11.84;70.02;100396.94;266023;1092;114971;-72
2021/03/30 07:23:34;;;;;;;;;;;;;;;11.87;69.31;100398.60;266397;1091;100875;-72
2021/03/30 07:28:47;;;;;;;30.45;21.38;;;;;;;11.92;69.24;100401.05;266446;1091;101044;-72
2021/03/30 07:33:59;;;;;;;30.58;21.70;;;;;;;11.92;69.77;100409.95;266053;1091;114955;-73
2021/03/30 07:39:04;;;;;;;33.70;20.68;;;;;;;11.93;69.85;100409.00;266344;1091;114652;-73
2021/03/30 07:44:07;;;;;;;27.50;19.15;;;;;;;11.91;69.31;100408.19;266337;1091;114724;-74
2021/03/30 07:49:11;;;;;;;30.85;18.60;;;;;;;11.98;69.25;100404.30;266211;1091;115042;-74
2021/03/30 07:54:16;;;;;;;36.53;19.00;;;;;;;12.03;69.79;100410.31;263674;1092;114921;-74
2021/03/30 07:59:50;;;;;;;27.90;19.63;;;;;;;12.06;69.74;100409.31;265989;1091;114879;-74
2021/03/30 08:05:05;;;;;;;34.18;19.95;;;;;;;12.07;69.72;100408.37;266366;1091;114753;-74
2021/03/30 08:10:20;;;;;;;;;;;;;;;12.12;69.96;100405.47;264306;1091;114941;-75
2021/03/30 08:15:43;;;;;;;26.37;17.80;;;;;;;12.16;69.87;100399.05;266346;1091;102385;-72
2021/03/30 08:20:58;;;;;;;27.13;18.30;;;;;;;12.26;70.10;100390.56;266283;1091;114906;-73
2021/03/30 08:26:28;;;;;;;31.50;19.58;;;;;;;12.38;69.64;100391.77;266421;1091;115241;-72
2021/03/30 08:31:36;;;;;;;26.38;18.93;;;;;;;12.51;69.85;100394.73;266315;1091;115062;-75
2021/03/30 08:36:49;;;;;;;27.68;18.75;;;;;;;12.66;70.22;100395.78;266248;1091;115311;-73
2021/03/30 08:41:56;;;;;;;28.98;18.78;;;;;;;12.84;70.16;100397.56;266150;1091;116462;-71
2021/03/30 08:47:00;;;;;;;28.18;19.30;;;;;;;12.94;69.57;100390.81;264803;1091;115163;-75
2021/03/30 08:52:03;;;;;;;32.50;21.28;;;;;;;13.08;69.93;100386.59;266152;1091;115353;-75
2021/03/30 08:57:08;;;;;;;34.10;21.23;;;;;;;13.23;69.65;100388.46;266214;1091;117159;-75
2021/03/30 09:02:11;;;;;;;31.03;20.20;;;;;;;13.28;69.14;100394.48;266138;1091;114655;-75
2021/03/30 09:07:14;;;;;;;29.50;19.40;;;;;;;13.39;69.01;100388.58;265749;1091;115604;-75
2021/03/30 09:12:16;;;;;;;32.03;20.65;;;;;;;13.52;69.06;100396.80;266145;1091;114668;-75
2021/03/30 09:17:19;;;;;;;28.53;20.03;;;;;;;13.63;68.89;100397.13;266196;1091;115358;-75
2021/03/30 09:27:36;;;;;;;40.18;22.90;;;;;;;13.69;68.92;100394.99;264999;1091;115297;-77
2021/03/30 09:32:41;;;;;;;35.20;23.75;;;;;;;13.73;68.00;100398.37;266389;1091;115413;-74
2021/03/30 09:37:49;;;;;;;36.80;22.05;;;;;;;13.73;68.02;100390.34;266001;1091;115011;-75
2021/03/30 09:42:52;;;;;;;32.28;21.13;;;;;;;13.71;67.58;100402.92;266020;1091;114602;-75
2021/03/30 09:47:56;;;;;;;36.13;22.73;;;;;;;13.67;68.00;100401.36;265324;1091;115500;-74
2021/03/30 09:53:05;;;;;;;37.90;24.93;;;;;;;13.67;67.99;100404.89;264214;1091;115022;-74
2021/03/30 09:58:16;;;;;;;41.65;26.40;;;;;;;13.67;67.91;100394.20;265993;1091;115076;-75
2021/03/30 10:03:22;;;;;;;45.73;26.78;;;;;;;13.67;68.32;100396.88;266024;1092;114750;-74
2021/03/30 10:08:26;;;;;;;35.00;25.43;;;;;;;13.63;67.98;100403.34;266316;1091;115270;-74
2021/03/30 10:13:37;;;;;;;36.58;24.55;;;;;;;13.66;68.15;100407.67;264485;1091;114944;-75
2021/03/30 10:18:42;;;;;;;38.23;26.55;;;;;;;13.70;68.31;100406.55;265982;1091;115127;-74
2021/03/30 10:23:52;;;;;;;42.93;28.38;;;;;;;13.77;68.76;100402.60;266330;1091;115117;-74
2021/03/30 10:29:02;;;;;;;44.43;29.10;;;;;;;13.77;68.22;100407.95;266035;1091;114934;-73
2021/03/30 10:34:43;;;;;;;43.50;28.40;;;;;;;13.79;68.25;100390.02;266273;1091;114921;-74
2021/03/30 10:39:45;;;;;;;45.18;29.58;;;;;;;13.82;68.64;100394.31;265485;1094;115069;-75
2021/03/30 10:44:56;;;;;;;41.30;28.50;;;;;;;13.88;68.32;100392.17;266198;1091;115021;-75
2021/03/30 10:50:00;;;;;;;42.45;29.68;;;;;;;13.90;68.44;100390.30;266140;1091;115145;-74
2021/03/30 10:55:10;;;;;;;48.78;31.25;;;;;;;13.90;68.93;100387.63;266348;1091;115013;-74
2021/03/30 11:00:16;;;;;;;46.45;31.80;;;;;;;13.93;68.69;100384.78;263454;1092;115137;-77
2021/03/30 11:05:19;;;;;;;53.95;35.10;;;;;;;13.99;68.95;100385.38;266365;1091;114725;-74
2021/03/30 11:10:24;;;;;;;49.33;31.98;;;;;;;14.03;68.87;100385.15;265970;1091;115210;-74
2021/03/30 11:15:26;;;;;;;46.37;32.73;;;;;;;14.10;68.58;100386.53;266272;1091;114740;-74
2021/03/30 11:20:29;;;;;;;47.80;32.65;;;;;;;14.23;68.35;100385.84;266255;1091;114899;-74
2021/03/30 11:26:04;;;;;;;48.40;33.28;;;;;;;14.30;68.73;100374.73;256758;1104;104882;-67
2021/03/30 11:31:15;;;;;;;45.73;32.10;;;;;;;14.43;68.67;100372.20;258457;1116;114627;-67
2021/03/30 11:36:20;;;;;;;45.65;31.30;;;;;;;14.53;68.69;100369.90;258426;1115;115599;-69
2021/03/30 11:41:31;;;;;;;40.85;28.88;;;;;;;14.62;68.32;100358.66;258446;1116;114643;-66
2021/03/30 11:46:34;;;;;;;42.15;29.43;;;;;;;14.71;68.05;100350.10;258332;1116;114932;-67
2021/03/30 11:51:38;;;;;;;40.83;29.20;;;;;;;14.85;68.37;100351.98;258483;1116;114664;-67
2021/03/30 11:56:40;;;;;;;43.70;30.00;;;;;;;14.98;68.17;100347.63;258397;1116;114203;-67
2021/03/30 12:01:44;;;;;;;48.68;30.98;;;;;;;15.11;68.04;100345.94;258494;1115;115097;-66
2021/03/30 12:06:47;;;;;;;47.38;31.10;;;;;;;15.16;67.46;100331.38;258332;1116;114389;-70
2021/03/30 12:11:49;;;;;;;45.90;28.93;;;;;;;15.20;67.13;100332.92;258492;1116;114239;-68
2021/03/30 12:16:52;;;;;;;45.13;27.05;;;;;;;15.26;67.21;100325.37;258383;1116;114641;-68
2021/03/30 12:21:57;;;;;;;54.53;29.38;;;;;;;15.37;67.17;100314.84;258381;1116;115518;-69
2021/03/30 12:27:00;;;;;;;40.93;28.83;;;;;;;15.50;66.99;100309.58;258509;1116;114820;-69
2021/03/30 12:32:03;;;;;;;46.93;28.83;;;;;;;15.55;66.70;100318.19;258385;1114;116331;-68
2021/03/30 12:37:10;;;;;;;47.38;28.93;;;;;;;15.59;66.50;100314.39;258349;1116;115028;-68
2021/03/30 12:42:13;;;;;;;46.48;29.90;;;;;;;15.70;66.55;100300.33;258496;1116;114784;-67
2021/03/30 12:47:15;;;;;;;52.83;30.70;;;;;;;15.78;66.44;100297.14;258372;1116;115434;-68
2021/03/30 12:52:18;;;;;;;49.33;28.03;;;;;;;15.88;66.03;100295.60;258330;1116;115483;-68
2021/03/30 12:57:21;;;;;;;45.53;27.25;;;;;;;15.95;65.73;100293.39;258357;1116;115492;-69
2021/03/30 13:02:24;;;;;;;40.03;26.73;;;;;;;15.98;65.68;100290.51;258110;1116;115652;-69
2021/03/30 13:07:30;;;;;;;51.55;26.85;;;;;;;16.03;65.49;100285.69;258175;1116;114841;-69
2021/03/30 13:12:39;;;;;;;41.00;28.43;;;;;;;16.05;65.21;100273.03;258167;1116;114974;-69
2021/03/30 13:17:56;;;;;;;43.60;28.28;;;;;;;16.13;65.23;100268.02;258254;1116;114779;-69
2021/03/30 13:23:01;;;;;;;48.63;29.53;;;;;;;16.22;65.01;100270.11;258149;1116;115129;-69
2021/03/30 13:28:06;;;;;;;55.05;31.23;;;;;;;16.29;65.38;100263.36;258162;1114;115413;-69
2021/03/30 13:33:09;;;;;;;46.13;26.15;;;;;;;16.39;64.85;100260.08;258248;1116;115888;-68
2021/03/30 13:38:13;;;;;;;46.15;25.88;;;;;;;16.44;64.46;100257.93;258057;1116;115011;-70
2021/03/30 13:43:17;;;;;;;52.38;32.40;;;;;;;16.60;64.95;100255.08;258318;1116;115550;-69
2021/03/30 13:48:25;;;;;;;;;;;;;;;16.76;64.46;100245.91;258213;1116;116898;-67
2021/03/30 13:53:34;;;;;;;46.35;25.43;;;;;;;16.86;64.14;100248.83;258207;1116;101670;-68
2021/03/30 13:58:39;;;;;;;46.35;26.18;;;;;;;16.93;63.70;100242.06;258252;1116;116501;-66
2021/03/30 14:03:43;;;;;;;44.13;25.58;;;;;;;17.07;63.65;100237.55;258095;1116;115245;-69
2021/03/30 14:08:49;;;;;;;46.40;25.60;;;;;;;17.18;63.52;100232.28;258148;1116;116162;-68
2021/03/30 14:14:39;;;;;;;48.23;24.70;;;;;;;17.27;63.22;100231.64;258121;1116;116078;-69
2021/03/30 14:19:48;;;;;;;38.50;23.55;;;;;;;17.34;62.96;100230.23;258132;1116;115189;-68
2021/03/30 14:25:20;;;;;;;39.85;22.68;;;;;;;17.33;62.14;100227.66;258167;1116;115329;-68
2021/03/30 14:30:23;;;;;;;42.33;22.30;;;;;;;17.25;62.22;100221.00;258132;1116;115146;-68
2021/03/30 14:35:26;;;;;;;39.60;21.33;;;;;;;17.19;62.13;100218.73;258260;1116;116264;-68
2021/03/30 14:40:32;;;;;;;34.95;20.43;;;;;;;17.12;61.72;100216.56;258102;1116;115664;-66
2021/03/30 14:56:46;;;;;;;37.10;21.80;;;;;;;17.14;61.61;100198.50;258177;1116;115201;-68
2021/03/30 15:07:01;;;;;;;37.70;20.33;;;;;;;17.13;61.20;100191.41;258102;1115;115204;-69
2021/03/30 15:12:09;;;;;;;39.53;18.33;;;;;;;17.17;60.90;100195.59;258139;1116;115650;-70
2021/03/30 15:17:12;;;;;;;37.48;20.33;;;;;;;17.18;60.59;100189.23;258258;1116;114905;-68
2021/03/30 15:22:21;;;;;;;89.05;58.35;;;;;;;17.25;61.25;100183.33;258049;1115;115474;-74
2021/03/30 15:27:32;;;;;;;62.65;39.65;;;;;;;17.44;61.36;100182.85;258223;1116;115394;-73
2021/03/30 15:32:49;;;;;;;98.23;65.05;;;;;;;17.61;61.73;100170.86;258231;1116;114750;-72
2021/03/30 15:38:59;;;;;;;56.85;31.60;;;;;;;17.91;61.53;100165.08;257972;1116;116920;-71
2021/03/30 15:49:45;;;;;;;;;;;;;;;;;;;;;
2021/03/30 15:55:27;;;;;;;59.50;39.75;;;;;;;17.97;59.84;100150.31;258062;1116;116288;-73
2021/03/30 16:00:33;;;;;;;36.23;22.18;;;;;;;18.01;59.86;100154.48;257390;1118;114845;-71
2021/03/30 16:05:45;;;;;;;40.85;22.38;;;;;;;18.04;59.40;100158.79;257665;1116;114910;-71
2021/03/30 16:11:06;;;;;;;43.28;23.10;;;;;;;18.10;59.72;100152.91;258102;1117;115865;-70
2021/03/30 16:16:46;;;;;;;38.08;20.63;;;;;;;18.09;58.84;100146.67;258019;1116;115501;-71
2021/03/30 16:21:52;;;;;;;44.13;26.93;;;;;;;18.08;59.00;100147.66;258177;1116;115117;-72
2021/03/30 16:27:07;;;;;;;55.63;32.40;;;;;;;18.14;59.22;100159.81;258150;1116;115217;-70
2021/03/30 16:32:56;;;;;;;41.53;20.08;;;;;;;18.15;59.05;100158.83;258155;1116;115835;-71
2021/03/30 16:38:32;;;;;;;40.25;18.75;;;;;;;18.18;58.63;100155.91;258141;1116;116351;-67
2021/03/30 16:43:39;;;;;;;38.13;17.13;;;;;;;17.98;57.92;100154.71;258257;1116;115922;-66
2021/03/30 16:48:49;;;;;;;33.43;17.15;;;;;;;17.73;57.76;100153.81;258068;1116;116232;-68
2021/03/30 16:53:52;;;;;;;;;;;;;;;17.56;57.48;100153.31;258345;1116;116107;-67
2021/03/30 16:59:01;;;;;;;34.83;17.30;;;;;;;17.37;57.49;100151.97;258200;1116;102230;-66
2021/03/30 17:04:18;;;;;;;37.35;18.33;;;;;;;17.25;57.95;100150.16;258196;1115;114877;-67
2021/03/30 17:09:25;;;;;;;32.20;17.58;;;;;;;17.14;58.21;100150.08;258203;1116;115142;-66
2021/03/30 17:14:37;;;;;;;41.65;17.85;;;;;;;17.02;58.15;100160.75;258163;1116;114860;-68
2021/03/30 17:19:41;;;;;;;36.63;17.20;;;;;;;16.90;58.11;100163.44;258227;1116;115164;-67
2021/03/30 17:24:44;;;;;;;51.30;18.75;;;;;;;16.71;58.36;100162.02;258224;1115;115460;-67
2021/03/30 17:29:53;;;;;;;53.28;19.33;;;;;;;16.51;58.37;100175.97;258290;1115;115176;-66
2021/03/30 17:35:02;;;;;;;51.75;20.38;;;;;;;16.28;58.52;100170.31;258182;1116;115528;-66
2021/03/30 17:40:07;;;;;;;46.93;19.53;;;;;;;16.07;58.80;100166.39;258080;1116;116831;-66
2021/03/30 17:45:12;;;;;;;50.63;20.50;;;;;;;15.87;59.18;100172.22;258086;1116;115591;-69
2021/03/30 17:50:20;;;;;;;48.88;20.03;;;;;;;15.72;59.48;100179.44;258212;1116;116118;-70
2021/03/30 17:55:25;;;;;;;47.48;18.65;;;;;;;15.57;59.68;100178.59;258157;1116;115025;-68
2021/03/30 18:00:28;;;;;;;45.48;19.53;;;;;;;15.45;59.81;100184.73;258215;1116;115970;-67
2021/03/30 18:05:31;;;;;;;49.55;20.95;;;;;;;15.37;60.22;100185.22;258231;1115;116026;-66
2021/03/30 18:10:48;;;;;;;54.40;20.60;;;;;;;15.28;60.20;100192.02;258063;1114;114994;-70
2021/03/30 18:16:03;;;;;;;51.10;22.30;;;;;;;15.14;60.25;100190.20;258108;1115;115440;-67
2021/03/30 18:21:06;;;;;;;50.90;21.23;;;;;;;15.03;60.58;100202.56;258183;1116;116225;-68
2021/03/30 18:26:11;;;;;;;45.23;20.65;;;;;;;14.88;60.80;100199.02;258242;1115;114739;-71
2021/03/30 18:31:14;;;;;;;41.00;22.40;;;;;;;14.76;60.79;100197.08;258322;1116;117362;-71
2021/03/30 18:36:18;;;;;;;43.23;21.40;;;;;;;14.64;61.19;100206.73;258320;1116;115491;-71
2021/03/30 18:41:21;;;;;;;44.35;21.00;;;;;;;14.50;60.90;100204.84;258199;1116;115005;-71
2021/03/30 18:46:27;;;;;;;46.40;19.70;;;;;;;14.38;61.08;100206.42;258201;1116;115121;-70
2021/03/30 18:51:30;;;;;;;51.83;19.85;;;;;;;14.30;61.74;100202.45;258218;1115;114922;-69
2021/03/30 18:56:36;;;;;;;56.95;22.90;;;;;;;14.24;61.93;100198.34;258262;1116;115408;-72
2021/03/30 19:01:42;;;;;;;46.88;22.70;;;;;;;14.17;61.74;100196.98;258181;1116;115984;-66
2021/03/30 19:07:00;;;;;;;57.15;28.25;;;;;;;14.12;61.93;100188.33;258144;1116;115011;-67
2021/03/30 19:12:08;;;;;;;56.65;23.90;;;;;;;13.99;61.89;100190.84;258246;1116;116140;-67
2021/03/30 19:17:13;;;;;;;60.98;29.48;;;;;;;13.88;62.11;100185.27;258155;1116;114814;-68
2021/03/30 19:22:16;;;;;;;59.78;29.18;;;;;;;13.78;62.50;100184.06;258200;1116;115908;-68
2021/03/30 19:27:30;;;;;;;57.40;30.23;;;;;;;13.66;62.81;100189.16;258266;1115;117970;-69
2021/03/30 19:32:47;;;;;;;59.65;28.98;;;;;;;13.56;62.77;100187.09;258312;1115;115113;-68
2021/03/30 19:37:50;;;;;;;64.98;28.95;;;;;;;13.51;62.54;100190.01;258106;1116;115207;-67
2021/03/30 19:42:53;;;;;;;60.03;30.35;;;;;;;13.46;63.36;100179.58;258098;1116;115293;-70
2021/03/30 19:48:02;;;;;;;66.90;35.95;;;;;;;13.40;63.26;100181.73;258207;1116;116769;-69
2021/03/30 19:53:10;;;;;;;66.38;31.78;;;;;;;13.30;62.94;100173.34;258261;1114;115539;-69
2021/03/30 19:58:20;;;;;;;54.15;29.75;;;;;;;13.24;63.30;100182.55;258242;1116;114888;-66
2021/03/30 20:03:28;;;;;;;69.43;30.20;;;;;;;13.18;63.16;100182.02;258077;1116;116462;-66
2021/03/30 20:08:33;;;;;;;63.60;28.70;;;;;;;13.10;63.89;100169.05;258155;1115;115681;-68
2021/03/30 20:13:42;;;;;;;52.15;26.65;;;;;;;13.03;63.69;100178.35;258207;1115;114857;-69
2021/03/30 20:18:44;;;;;;;60.83;26.43;;;;;;;13.01;63.60;100175.77;258149;1116;117903;-70
2021/03/30 20:23:49;;;;;;;52.13;25.83;;;;;;;13.00;64.42;100175.84;258286;1116;115878;-70
2021/03/30 20:29:03;;;;;;;48.90;26.85;;;;;;;12.96;64.17;100175.14;258248;1114;115568;-69
2021/03/30 20:34:06;;;;;;;46.95;26.60;;;;;;;12.89;63.46;100176.42;258187;1116;116126;-68
2021/03/30 20:39:19;;;;;;;57.05;27.85;;;;;;;12.80;63.54;100179.57;258172;1116;115334;-71
2021/03/30 20:44:25;;;;;;;56.43;28.05;;;;;;;12.70;64.28;100172.98;258292;1116;114959;-70
2021/03/30 20:49:34;;;;;;;64.20;33.33;;;;;;;12.59;64.44;100178.89;258101;1116;115252;-70
2021/03/30 20:54:43;;;;;;;63.40;33.33;;;;;;;12.50;64.00;100174.91;258271;1116;116606;-71
2021/03/30 20:59:51;;;;;;;72.85;38.75;;;;;;;12.45;63.76;100173.41;258238;1115;115440;-72
2021/03/30 21:05:07;;;;;;;77.35;41.95;;;;;;;12.40;64.71;100173.66;258153;1116;115670;-72
2021/03/30 21:10:12;;;;;;;76.13;42.58;;;;;;;12.35;64.43;100165.01;258177;1115;115512;-69
2021/03/30 21:15:22;;;;;;;81.88;42.95;;;;;;;12.30;64.99;100167.06;258289;1109;115011;-68
2021/03/30 21:20:28;;;;;;;81.35;43.83;;;;;;;12.21;64.43;100162.19;258131;1116;115368;-67
2021/03/30 21:25:35;;;;;;;75.50;43.70;;;;;;;12.11;64.40;100158.25;258124;1115;115506;-68
2021/03/30 21:30:46;;;;;;;73.00;45.20;;;;;;;12.00;64.60;100158.80;258247;1115;115450;-67
2021/03/30 21:35:53;;;;;;;77.68;43.20;;;;;;;11.89;65.31;100161.11;258261;1115;115727;-66
2021/03/30 21:40:56;;;;;;;73.90;43.58;;;;;;;11.84;64.74;100159.54;258023;1116;115385;-67
2021/03/30 21:45:59;;;;;;;71.43;42.30;;;;;;;11.83;65.03;100167.59;258076;1114;116446;-66
2021/03/30 21:51:07;;;;;;;76.15;43.20;;;;;;;11.77;65.07;100166.08;258275;1116;116745;-67
2021/03/30 21:56:14;;;;;;;78.45;42.83;;;;;;;11.72;64.99;100159.23;258144;1116;115640;-67
2021/03/30 22:01:21;;;;;;;75.38;43.90;;;;;;;11.65;65.30;100165.81;258115;1116;116888;-66
2021/03/30 22:06:24;;;;;;;73.20;43.95;;;;;;;11.59;65.06;100166.98;258174;1108;116504;-67
2021/03/30 22:11:48;;;;;;;83.75;47.00;;;;;;;11.50;64.81;100168.28;258420;1115;115545;-72
2021/03/30 22:16:56;;;;;;;83.65;46.85;;;;;;;11.43;64.73;100166.84;258289;1115;115276;-69
2021/03/30 22:22:19;;;;;;;80.53;47.10;;;;;;;11.40;64.93;100166.98;258192;1115;115138;-67
2021/03/30 22:27:22;;;;;;;85.38;51.15;;;;;;;11.39;65.07;100167.08;258206;1115;115351;-69
2021/03/30 22:32:48;;;;;;;86.30;52.28;;;;;;;11.38;65.62;100168.88;258267;1116;115013;-69
2021/03/30 22:37:53;;;;;;;88.65;52.90;;;;;;;11.34;65.35;100170.83;258092;1115;115901;-68
2021/03/30 22:43:15;;;;;;;87.78;51.35;;;;;;;11.29;65.12;100171.97;257807;1116;115479;-68
2021/03/30 22:48:18;;;;;;;85.53;51.80;;;;;;;11.22;66.17;100166.06;258201;1115;115348;-67
2021/03/30 22:53:27;;;;;;;83.50;50.98;;;;;;;11.15;65.49;100166.42;258097;1115;115671;-69
2021/03/30 22:59:01;;;;;;;82.65;48.10;;;;;;;11.08;64.94;100163.17;258029;1110;115908;-68
2021/03/30 23:04:31;;;;;;;78.65;47.95;;;;;;;11.03;65.34;100166.03;258223;1116;115545;-69
2021/03/30 23:09:44;;;;;;;76.83;47.08;;;;;;;11.01;65.62;100159.92;258194;1115;116547;-69
2021/03/30 23:15:16;;;;;;;78.53;48.43;;;;;;;10.99;65.81;100160.92;258218;1115;115433;-68
2021/03/30 23:20:20;;;;;;;84.73;50.08;;;;;;;10.92;65.66;100165.66;258289;1116;115284;-68